Time;durP1;ratioP1;P1;durP2;ratioP2;P2;SDS_P1;SDS_P2;PMS_P1;PMS_P2;Temp;Humidity;BMP_temperature;BMP_pressure;BME280_temperature;BME280_humidity;BME280_pressure;Samples;Min_cycle;Max_cycle;Signal;HPM_P1;HPM_P2
2023/09/21 00:00:28;;;;;;;6.57;2.80;;;;;;;20.33;57.08;97821.44;6862698;28;20267;-84
2023/09/21 00:03:50;;;;;;;2.40;2.20;;;;;;;20.41;56.86;97823.53;6862009;28;20245;-84
2023/09/21 00:07:12;;;;;;;4.33;2.70;;;;;;;19.44;57.72;97736.41;6863043;28;20300;-84
2023/09/21 00:10:33;;;;;;;3.10;2.67;;;;;;;19.74;58.69;97823.66;6862029;28;20209;-85
2023/09/21 00:13:56;;;;;;;2.80;2.60;;;;;;;19.88;58.75;97800.78;6867331;28;20336;-84
2023/09/21 00:17:18;;;;;;;3.30;2.27;;;;;;;19.55;60.02;97825.44;6867823;28;20205;-84
2023/09/21 00:20:48;;;;;;;4.80;2.63;;;;;;;19.40;59.06;97751.75;6867001;28;20579;-84
2023/09/21 00:24:12;;;;;;;4.07;2.20;;;;;;;19.93;58.31;97813.63;6867399;28;20263;-84
2023/09/21 00:27:33;;;;;;;3.10;2.50;;;;;;;19.94;58.57;97807.03;6867509;28;20217;-83
2023/09/21 00:30:57;;;;;;;3.33;2.60;;;;;;;19.34;59.12;97758.38;6865967;28;20248;-84
2023/09/21 00:34:18;;;;;;;3.00;2.27;;;;;;;19.88;58.62;97803.53;6867102;28;20707;-84
2023/09/21 00:37:40;;;;;;;2.37;2.17;;;;;;;19.75;58.50;97765.91;6866655;28;20293;-85
2023/09/21 00:41:04;;;;;;;4.20;2.70;;;;;;;19.89;58.32;97796.13;6865634;28;20343;-84
2023/09/21 00:44:26;;;;;;;2.77;2.27;;;;;;;19.96;57.86;97791.97;6866392;28;20235;-85
2023/09/21 00:47:50;;;;;;;2.60;2.40;;;;;;;19.69;58.38;97783.47;6864424;28;20205;-84
2023/09/21 00:51:13;;;;;;;2.87;2.53;;;;;;;19.58;59.08;97800.28;6865792;28;20209;-86
2023/09/21 00:54:35;;;;;;;3.27;2.53;;;;;;;20.07;57.62;97789.97;6865562;28;20653;-87
2023/09/21 00:58:01;;;;;;;2.97;2.50;;;;;;;20.00;57.55;97773.06;6865699;28;20201;-87
2023/09/21 01:01:29;;;;;;;4.50;2.50;;;;;;;19.67;57.90;97741.94;6864724;28;20680;-86
2023/09/21 01:04:52;;;;;;;3.00;2.60;;;;;;;19.63;58.88;97767.41;6844255;28;20194;-87
2023/09/21 01:08:17;;;;;;;2.60;2.40;;;;;;;19.67;58.82;97769.28;6838379;28;20213;-87
2023/09/21 01:11:39;;;;;;;3.93;2.67;;;;;;;19.95;57.84;97776.66;6839355;29;20291;-85
2023/09/21 01:15:10;;;;;;;7.87;3.30;;;;;;;19.55;57.52;97746.97;6840003;29;20206;-84
2023/09/21 01:18:32;;;;;;;2.87;2.30;;;;;;;19.79;58.31;97766.97;6840101;29;20195;-84
2023/09/21 01:21:55;;;;;;;4.40;2.60;;;;;;;19.59;58.49;97769.09;6838535;29;20240;-84
2023/09/21 01:25:18;;;;;;;2.63;2.40;;;;;;;19.86;57.82;97774.84;6839381;29;20245;-84
2023/09/21 01:28:40;;;;;;;4.17;2.67;;;;;;;19.67;57.76;97776.66;6839403;29;20206;-84
2023/09/21 01:32:02;;;;;;;3.37;2.53;;;;;;;19.64;58.33;97774.50;6839044;29;20230;-84
2023/09/21 01:35:28;;;;;;;5.43;2.47;;;;;;;19.40;59.01;97768.97;6839827;29;20331;-84
2023/09/21 01:38:50;;;;;;;4.70;2.50;;;;;;;19.49;59.14;97775.47;6839553;29;20217;-84
2023/09/21 01:42:12;;;;;;;4.47;2.83;;;;;;;18.56;59.32;97642.03;6838154;29;20244;-84
2023/09/21 01:45:34;;;;;;;2.67;2.47;;;;;;;19.49;59.27;97761.78;6838920;29;20268;-84
2023/09/21 01:48:56;;;;;;;3.77;2.50;;;;;;;19.47;59.11;97746.78;6838675;29;20279;-85
2023/09/21 01:52:18;;;;;;;3.00;2.70;;;;;;;19.06;60.04;97723.59;6838000;29;20277;-84
2023/09/21 01:55:41;;;;;;;4.50;2.97;;;;;;;19.11;59.59;97745.41;6839912;29;20210;-84
2023/09/21 01:59:05;;;;;;;3.17;2.87;;;;;;;19.37;59.83;97747.69;6839658;29;20289;-84
2023/09/21 02:02:27;;;;;;;2.60;2.40;;;;;;;19.56;58.94;97728.63;6838596;29;20230;-85
2023/09/21 02:05:48;;;;;;;4.10;2.60;;;;;;;19.02;59.64;97714.31;6837131;29;20340;-85
2023/09/21 02:09:14;;;;;;;2.77;2.50;;;;;;;19.16;60.11;97740.72;6837349;29;20202;-84
2023/09/21 02:12:36;;;;;;;3.30;3.00;;;;;;;19.09;60.07;97712.06;6836475;29;20237;-84
2023/09/21 02:15:59;;;;;;;3.10;2.80;;;;;;;19.21;60.30;97734.44;6837154;29;20256;-84
2023/09/21 02:19:20;;;;;;;3.80;3.03;;;;;;;19.22;60.43;97723.19;6837101;29;20560;-85
2023/09/21 02:22:45;;;;;;;2.80;2.60;;;;;;;19.53;59.46;97718.28;6836633;29;20324;-84
2023/09/21 02:26:07;;;;;;;3.53;2.77;;;;;;;19.40;59.04;97684.22;6837010;29;20253;-84
2023/09/21 02:29:29;;;;;;;2.80;2.60;;;;;;;19.41;59.27;97720.59;6836650;29;20241;-85
2023/09/21 02:32:53;;;;;;;3.90;2.77;;;;;;;19.73;58.98;97712.59;6836080;29;20237;-84
2023/09/21 02:36:17;;;;;;;3.83;2.50;;;;;;;19.74;58.40;97701.38;6836455;28;20209;-85
2023/09/21 02:39:39;;;;;;;2.97;2.67;;;;;;;19.80;58.19;97697.47;6836347;29;20212;-84
2023/09/21 02:43:01;;;;;;;2.93;2.63;;;;;;;19.44;58.92;97665.31;6835342;28;20678;-84
2023/09/21 02:46:22;;;;;;;4.37;2.57;;;;;;;19.72;58.99;97686.34;6836719;29;20269;-84
2023/09/21 02:49:45;;;;;;;2.90;2.60;;;;;;;19.72;58.72;97689.09;6836537;29;20242;-84
2023/09/21 02:53:10;;;;;;;3.43;2.50;;;;;;;19.16;60.28;97686.06;6835027;29;20328;-84
2023/09/21 02:56:32;;;;;;;2.90;2.70;;;;;;;19.30;60.37;97656.19;6836601;29;20214;-85
2023/09/21 02:59:53;;;;;;;3.00;2.77;;;;;;;19.76;58.93;97646.41;6862449;28;20256;-84
2023/09/21 03:03:16;;;;;;;2.70;2.50;;;;;;;19.87;59.00;97669.78;6866441;28;20272;-84
2023/09/21 03:06:42;;;;;;;5.37;2.70;;;;;;;19.93;58.34;97666.69;6864612;28;20216;-84
2023/09/21 03:10:09;;;;;;;2.77;2.57;;;;;;;20.13;58.22;97680.16;6864474;28;20216;-85
2023/09/21 03:13:30;;;;;;;2.60;2.40;;;;;;;20.01;58.55;97673.44;6863560;28;20232;-84
2023/09/21 03:16:52;;;;;;;4.20;2.70;;;;;;;19.75;59.41;97675.66;6863776;28;20296;-85
2023/09/21 03:20:15;;;;;;;2.70;2.50;;;;;;;19.84;59.21;97670.34;6863645;28;20216;-84
2023/09/21 03:23:39;;;;;;;4.10;2.60;;;;;;;19.89;58.94;97659.34;6862900;28;20233;-84
2023/09/21 03:27:00;;;;;;;4.03;2.43;;;;;;;20.26;58.17;97668.50;6873339;28;20205;-84
2023/09/21 03:30:23;;;;;;;6.43;2.87;;;;;;;20.15;57.88;97669.72;6870931;28;20320;-85
2023/09/21 03:33:46;;;;;;;2.87;2.60;;;;;;;20.01;58.62;97660.59;6865724;28;20703;-85
2023/09/21 03:37:11;;;;;;;2.80;2.60;;;;;;;20.02;58.54;97650.44;6865470;28;20237;-84
2023/09/21 03:40:34;;;;;;;3.97;2.80;;;;;;;20.14;58.81;97643.47;6865338;28;20688;-84
2023/09/21 03:43:55;;;;;;;5.07;3.57;;;;;;;19.91;59.21;97655.22;6865795;28;20372;-84
2023/09/21 03:47:17;;;;;;;2.73;2.53;;;;;;;20.22;58.64;97633.78;6867319;28;20256;-87
2023/09/21 03:50:40;;;;;;;6.33;4.53;;;;;;;20.43;57.77;97648.81;6869916;28;20219;-86
2023/09/21 03:54:02;;;;;;;4.90;2.70;;;;;;;20.37;57.88;97648.06;6869303;28;20229;-87
2023/09/21 03:57:25;;;;;;;3.00;2.70;;;;;;;19.84;58.53;97588.28;6868888;28;20205;-87
2023/09/21 04:00:47;;;;;;;2.87;2.53;;;;;;;20.23;58.61;97629.94;6868450;28;20300;-87
2023/09/21 04:04:17;;;;;;;7.17;3.30;;;;;;;20.11;59.10;97633.09;6850115;28;20236;-87
2023/09/21 04:07:39;;;;;;;4.00;2.80;;;;;;;19.96;59.39;97632.44;6841499;29;20193;-88
2023/09/21 04:11:00;;;;;;;3.57;2.97;;;;;;;19.84;60.09;97630.16;6841182;29;20300;-87
2023/09/21 04:14:24;;;;;;;4.23;2.63;;;;;;;19.86;60.06;97640.81;6864815;28;20236;-87
2023/09/21 04:17:46;;;;;;;3.33;2.87;;;;;;;19.64;60.51;97613.97;6867880;28;20217;-87
2023/09/21 04:21:08;;;;;;;6.90;2.90;;;;;;;19.76;60.16;97605.38;6868106;28;20336;-87
2023/09/21 04:24:31;;;;;;;2.83;2.60;;;;;;;19.85;60.52;97620.00;6867414;28;20240;-87
2023/09/21 04:27:53;;;;;;;3.10;2.80;;;;;;;19.72;60.36;97599.66;6867386;28;20202;-87
2023/09/21 04:31:16;;;;;;;3.53;2.93;;;;;;;20.03;59.71;97613.75;6867382;28;20205;-87
2023/09/21 04:34:37;;;;;;;4.80;3.00;;;;;;;19.99;59.85;97623.69;6867429;28;20312;-87
2023/09/21 04:37:59;;;;;;;3.63;3.00;;;;;;;20.20;59.55;97623.13;6867013;28;20279;-87
2023/09/21 04:41:21;;;;;;;4.50;2.67;;;;;;;20.40;58.51;97619.28;6866461;28;20255;-87
2023/09/21 04:44:43;;;;;;;3.20;2.70;;;;;;;20.38;58.56;97625.06;6866911;28;20230;-87
2023/09/21 04:48:06;;;;;;;3.70;2.73;;;;;;;19.85;59.36;97562.56;6864135;28;20210;-87
2023/09/21 04:51:28;;;;;;;3.97;3.13;;;;;;;19.81;60.42;97618.97;6839219;29;20258;-87
2023/09/21 04:54:51;;;;;;;3.17;2.83;;;;;;;19.93;60.43;97624.84;6851733;28;20202;-86
2023/09/21 04:58:13;;;;;;;5.77;4.30;;;;;;;20.27;59.47;97618.09;6864941;28;20213;-87
2023/09/21 05:01:34;;;;;;;3.67;3.00;;;;;;;20.24;58.66;97617.88;6865125;28;20205;-88
2023/09/21 05:04:57;;;;;;;3.50;2.90;;;;;;;20.25;58.95;97623.06;6866031;28;20375;-87
2023/09/21 05:08:19;;;;;;;4.60;3.00;;;;;;;20.36;58.79;97626.47;6888402;28;20806;-87
2023/09/21 05:11:40;;;;;;;6.40;2.80;;;;;;;19.92;58.56;97558.38;6892616;28;20730;-87
2023/09/21 05:15:06;;;;;;;3.77;2.90;;;;;;;20.20;59.25;97614.09;6893038;28;20694;-87
2023/09/21 05:18:27;;;;;;;4.03;3.00;;;;;;;20.15;59.95;97614.16;6893307;28;20204;-87
2023/09/21 05:21:50;;;;;;;6.60;3.70;;;;;;;20.37;59.38;97614.41;6892107;28;20328;-87
2023/09/21 05:25:12;;;;;;;3.77;3.37;;;;;;;19.77;59.83;97542.19;6885532;28;20291;-87
2023/09/21 05:28:33;;;;;;;3.17;2.87;;;;;;;19.75;61.24;97612.75;6865729;28;20687;-87
2023/09/21 05:31:56;;;;;;;4.43;3.10;;;;;;;20.13;60.36;97610.91;6864679;28;20364;-87
2023/09/21 05:35:18;;;;;;;4.43;3.23;;;;;;;19.69;60.17;97531.88;6865405;28;20348;-87
2023/09/21 05:38:43;;;;;;;4.10;2.63;;;;;;;20.24;60.06;97609.66;6865816;28;20549;-87
2023/09/21 05:42:05;;;;;;;3.40;3.10;;;;;;;20.29;60.02;97610.41;6864907;28;20383;-86
2023/09/21 05:45:27;;;;;;;3.50;3.20;;;;;;;20.74;59.09;97606.19;6865141;28;20228;-87
2023/09/21 05:48:48;;;;;;;4.30;3.40;;;;;;;20.91;58.27;97588.09;6864872;28;20300;-87
2023/09/21 05:52:12;;;;;;;5.03;3.47;;;;;;;21.15;57.54;97594.22;6864276;28;20365;-88
2023/09/21 05:55:36;;;;;;;3.80;2.80;;;;;;;21.02;57.58;97584.06;6864543;28;20348;-87
2023/09/21 05:58:59;;;;;;;3.53;2.97;;;;;;;21.04;57.32;97590.03;6864874;28;20208;-87
2023/09/21 06:02:21;;;;;;;3.30;2.77;;;;;;;21.00;57.66;97571.78;6864111;28;20768;-87
2023/09/21 06:05:45;;;;;;;4.80;2.73;;;;;;;20.99;58.10;97589.34;6864109;28;20775;-87
2023/09/21 06:09:07;;;;;;;5.63;2.90;;;;;;;21.06;58.79;97595.22;6864091;28;20255;-87
2023/09/21 06:12:30;;;;;;;3.23;2.53;;;;;;;21.91;57.90;97573.28;6863514;28;20329;-87
2023/09/21 06:15:52;;;;;;;2.60;2.40;;;;;;;21.93;54.92;97564.72;6864477;28;20233;-87
2023/09/21 06:19:14;;;;;;;2.60;2.40;;;;;;;22.11;54.61;97552.78;6862575;28;20297;-87
2023/09/21 06:22:37;;;;;;;4.27;2.60;;;;;;;22.51;53.58;97568.34;6861550;28;20771;-87
2023/09/21 06:25:58;;;;;;;2.70;2.50;;;;;;;22.16;53.67;97578.19;6861466;28;20335;-87
2023/09/21 06:29:22;;;;;;;3.67;2.40;;;;;;;22.55;52.19;97564.66;6861535;28;20198;-87
2023/09/21 06:32:44;;;;;;;3.77;2.23;;;;;;;22.29;52.42;97577.34;6860787;28;20230;-87
2023/09/21 06:36:14;;;;;;;3.13;2.40;;;;;;;22.74;52.01;97580.97;6861545;28;20218;-87
2023/09/21 06:39:36;;;;;;;3.13;2.50;;;;;;;22.39;51.51;97524.94;6861552;28;20194;-87
2023/09/21 06:42:57;;;;;;;2.87;2.40;;;;;;;22.86;51.58;97568.28;6860769;28;20315;-87
2023/09/21 06:46:20;;;;;;;2.70;2.30;;;;;;;23.11;50.74;97570.38;6861104;28;20351;-87
2023/09/21 06:49:43;;;;;;;2.57;2.37;;;;;;;23.31;50.45;97558.84;6860988;28;20349;-88
2023/09/21 06:53:05;;;;;;;3.13;2.80;;;;;;;23.56;50.28;97560.94;6860752;28;20666;-87
2023/09/21 06:56:31;;;;;;;4.93;2.30;;;;;;;24.01;50.18;97556.84;6861412;28;20214;-88
2023/09/21 06:59:53;;;;;;;3.80;2.50;;;;;;;24.37;48.88;97542.81;6860954;28;20203;-88
2023/09/21 07:03:17;;;;;;;3.67;2.53;;;;;;;24.62;49.07;97545.59;6860521;28;20235;-88
2023/09/21 07:06:39;;;;;;;2.60;2.20;;;;;;;24.74;47.87;97539.41;6860804;28;20245;-87
2023/09/21 07:10:00;;;;;;;2.20;2.00;;;;;;;24.83;48.01;97543.75;6859398;28;20667;-88
2023/09/21 07:13:22;;;;;;;2.53;2.30;;;;;;;24.76;47.49;97502.09;6859936;28;20824;-87
2023/09/21 07:16:43;;;;;;;3.10;2.20;;;;;;;24.74;47.40;97540.22;6860881;28;20301;-84
2023/09/21 07:20:08;;;;;;;2.40;2.20;;;;;;;24.81;47.83;97521.25;6861147;28;20329;-85
2023/09/21 07:23:29;;;;;;;4.60;3.47;;;;;;;24.61;48.71;97491.56;6859946;28;20687;-88
2023/09/21 07:26:53;;;;;;;3.63;2.77;;;;;;;25.00;48.69;97542.91;6859833;28;20209;-88
2023/09/21 07:30:16;;;;;;;3.00;2.27;;;;;;;24.35;48.87;97543.13;6860060;28;20203;-88
2023/09/21 07:33:38;;;;;;;5.23;2.57;;;;;;;24.87;48.41;97543.91;6860183;28;20232;-88
2023/09/21 07:37:00;;;;;;;10.40;4.50;;;;;;;24.98;48.51;97512.09;6860613;28;20302;-88
2023/09/21 07:40:22;;;;;;;9.03;3.40;;;;;;;25.28;48.15;97547.75;6860455;28;20312;-87
2023/09/21 07:43:44;;;;;;;4.10;2.60;;;;;;;25.57;46.98;97536.75;6860000;28;20233;-86
2023/09/21 07:47:07;;;;;;;4.03;2.10;;;;;;;25.11;47.03;97530.41;6860549;28;20297;-85
2023/09/21 07:50:34;;;;;;;3.90;3.43;;;;;;;25.72;46.59;97541.69;6860833;28;20207;-87
2023/09/21 07:53:57;;;;;;;3.53;2.43;;;;;;;25.61;45.82;97528.63;6860799;28;20360;-87
2023/09/21 07:57:18;;;;;;;2.60;2.40;;;;;;;25.11;46.05;97450.41;6860902;28;20288;-87
2023/09/21 08:00:40;;;;;;;3.53;2.03;;;;;;;25.72;45.11;97497.53;6860561;28;20352;-87
2023/09/21 08:04:01;;;;;;;3.30;2.87;;;;;;;25.76;45.98;97517.81;6860524;28;20586;-88
2023/09/21 08:07:26;;;;;;;8.73;5.87;;;;;;;25.82;45.59;97508.19;6859764;28;20302;-88
2023/09/21 08:10:50;;;;;;;4.67;3.50;;;;;;;26.64;44.22;97499.97;6859692;28;20295;-87
2023/09/21 08:14:12;;;;;;;3.10;2.80;;;;;;;26.73;43.35;97502.66;6865881;28;20267;-88
2023/09/21 08:17:36;;;;;;;4.33;2.63;;;;;;;27.70;41.11;97477.56;6860995;28;20209;-84
2023/09/21 08:20:58;;;;;;;2.60;2.40;;;;;;;28.21;41.43;97479.59;6863541;28;20218;-85
2023/09/21 08:24:19;;;;;;;4.90;2.40;;;;;;;28.83;39.69;97473.50;6864322;28;20292;-85
2023/09/21 08:27:42;;;;;;;3.23;2.40;;;;;;;29.75;38.73;97483.88;6874969;28;20228;-85
2023/09/21 08:31:04;;;;;;;3.13;2.20;;;;;;;29.68;38.59;97482.91;6860434;28;20806;-84
2023/09/21 08:34:25;;;;;;;3.43;2.30;;;;;;;29.19;39.15;97465.75;6863861;28;20227;-84
2023/09/21 08:37:48;;;;;;;4.03;2.53;;;;;;;29.06;40.12;97472.56;6864688;28;20688;-85
2023/09/21 08:41:09;;;;;;;3.40;2.53;;;;;;;28.36;40.59;97467.75;6863904;28;20207;-85
2023/09/21 08:44:32;;;;;;;3.27;2.77;;;;;;;28.50;40.07;97467.41;6864582;28;20321;-85
2023/09/21 08:47:56;;;;;;;3.80;2.80;;;;;;;28.50;38.28;97439.66;6864688;28;20207;-85
2023/09/21 08:51:18;;;;;;;2.27;2.03;;;;;;;28.69;38.27;97471.13;6863780;28;20205;-85
2023/09/21 08:54:41;;;;;;;3.73;2.40;;;;;;;29.08;37.83;97464.66;6864242;28;20724;-85
2023/09/21 08:58:04;;;;;;;4.10;2.73;;;;;;;29.13;38.61;97460.84;6864879;28;20202;-85
2023/09/21 09:01:27;;;;;;;2.90;2.40;;;;;;;28.95;38.95;97401.28;6864969;28;20216;-85
2023/09/21 09:04:49;;;;;;;2.50;2.20;;;;;;;29.44;38.64;97461.66;6866535;28;20264;-85
2023/09/21 09:08:10;;;;;;;3.33;2.07;;;;;;;29.26;38.69;97396.53;6865189;28;20340;-84
2023/09/21 09:11:35;;;;;;;5.80;2.30;;;;;;;30.18;37.38;97466.22;6864408;28;20234;-85
2023/09/21 09:14:57;;;;;;;2.40;2.20;;;;;;;30.95;35.68;97471.44;6865214;28;20220;-84
2023/09/21 09:18:20;;;;;;;2.20;2.00;;;;;;;30.13;34.95;97424.81;6865759;28;20213;-85
2023/09/21 09:21:42;;;;;;;2.47;2.10;;;;;;;29.60;36.28;97397.78;6864698;28;20294;-85
2023/09/21 09:25:05;;;;;;;3.80;2.40;;;;;;;30.14;35.43;97460.56;6864088;28;20326;-84
2023/09/21 09:28:27;;;;;;;2.50;2.20;;;;;;;30.11;37.32;97458.53;6864043;28;20211;-86
2023/09/21 09:31:49;;;;;;;2.67;2.40;;;;;;;29.66;37.72;97411.00;6863617;28;20218;-87
2023/09/21 09:35:13;;;;;;;2.67;2.40;;;;;;;29.27;38.53;97420.38;6864282;28;20302;-85
2023/09/21 09:38:34;;;;;;;2.20;2.00;;;;;;;28.63;39.21;97380.19;6863543;28;20215;-86
2023/09/21 09:41:56;;;;;;;3.30;2.00;;;;;;;30.04;37.41;97427.78;6863453;28;20319;-85
2023/09/21 09:45:19;;;;;;;3.40;2.20;;;;;;;28.94;37.37;97358.81;6862979;28;20262;-86
2023/09/21 09:48:43;;;;;;;3.00;2.50;;;;;;;29.39;37.52;97408.34;6863070;28;20270;-85
2023/09/21 09:52:09;;;;;;;2.60;2.17;;;;;;;28.85;38.33;97368.50;6862354;28;20235;-86
2023/09/21 09:55:33;;;;;;;3.97;2.40;;;;;;;29.25;38.45;97408.00;6863608;28;20201;-86
2023/09/21 09:58:57;;;;;;;3.03;2.57;;;;;;;28.29;40.07;97397.44;6863638;28;20247;-84
2023/09/21 10:02:19;;;;;;;4.17;3.70;;;;;;;28.73;37.67;97402.66;6862373;28;20231;-85
2023/09/21 10:05:41;;;;;;;4.43;3.23;;;;;;;29.29;37.41;97395.00;6862659;28;20228;-84
2023/09/21 10:09:10;;;;;;;4.60;3.37;;;;;;;29.14;37.15;97388.28;6863256;28;20228;-83
2023/09/21 10:12:32;;;;;;;3.27;2.40;;;;;;;28.77;36.19;97381.38;6861988;28;20226;-84
2023/09/21 10:16:01;;;;;;;2.20;2.00;;;;;;;29.00;35.96;97374.06;6862728;28;20298;-84
2023/09/21 10:19:25;;;;;;;3.97;2.30;;;;;;;29.63;34.50;97372.84;6863572;28;20278;-85
2023/09/21 10:22:47;;;;;;;2.27;2.07;;;;;;;28.76;34.96;97376.16;6861889;28;20613;-85
2023/09/21 10:26:12;;;;;;;2.30;2.10;;;;;;;30.01;34.00;97378.44;6862783;28;20295;-83
2023/09/21 10:29:37;;;;;;;2.50;2.10;;;;;;;30.68;33.30;97355.63;6862750;28;20245;-84
2023/09/21 10:32:58;;;;;;;2.60;2.20;;;;;;;30.37;33.01;97324.41;6862613;28;20594;-83
2023/09/21 10:36:22;;;;;;;2.50;2.30;;;;;;;29.54;34.97;97343.66;6862930;28;20205;-83
2023/09/21 10:39:47;;;;;;;3.80;2.23;;;;;;;29.79;34.74;97325.56;6863592;28;20726;-83
2023/09/21 10:43:42;;;;;;;4.00;2.23;;;;;;;30.94;33.58;97333.41;6862198;28;20314;-83
2023/09/21 10:47:05;;;;;;;2.43;2.17;;;;;;;29.76;35.27;97335.44;6862348;28;20473;-83
2023/09/21 10:50:28;;;;;;;5.17;3.13;;;;;;;30.83;33.69;97310.16;6864177;28;20743;-83
2023/09/21 10:53:50;;;;;;;3.43;2.80;;;;;;;30.81;33.84;97317.25;6863638;28;20227;-83
2023/09/21 10:57:13;;;;;;;1.90;1.60;;;;;;;31.04;33.07;97316.09;6861945;28;20213;-86
2023/09/21 11:00:34;;;;;;;2.23;2.03;;;;;;;32.39;30.17;97257.03;6862563;28;20213;-85
2023/09/21 11:03:58;;;;;;;2.27;2.03;;;;;;;32.93;29.05;97281.47;6867971;28;20218;-83
2023/09/21 11:07:21;;;;;;;2.20;1.93;;;;;;;32.72;30.29;97290.44;6878694;28;20208;-83
2023/09/21 11:10:43;;;;;;;3.57;2.10;;;;;;;32.69;29.81;97288.41;6880021;28;20225;-83
2023/09/21 11:14:05;;;;;;;2.17;1.97;;;;;;;33.46;27.00;97285.47;6878568;28;20244;-85
2023/09/21 11:17:28;;;;;;;2.00;1.70;;;;;;;33.87;27.46;97281.31;6874190;28;20219;-82
2023/09/21 11:20:51;;;;;;;1.80;1.70;;;;;;;34.35;26.34;97280.72;6866448;28;20204;-87
2023/09/21 11:24:15;;;;;;;2.30;2.03;;;;;;;33.81;26.23;97255.72;6868286;28;20325;-84
2023/09/21 11:27:38;;;;;;;3.93;2.03;;;;;;;33.52;27.24;97269.91;6865961;28;20205;-85
2023/09/21 11:31:00;;;;;;;2.10;1.80;;;;;;;33.64;26.82;97264.81;6864815;28;20232;-84
2023/09/21 11:34:22;;;;;;;1.93;1.80;;;;;;;33.69;26.76;97228.09;6865230;28;20252;-84
2023/09/21 11:37:46;;;;;;;2.20;2.10;;;;;;;34.50;26.06;97226.34;6864305;28;20227;-84
2023/09/21 11:41:08;;;;;;;2.30;2.10;;;;;;;34.77;26.04;97255.59;6863725;28;20240;-83
2023/09/21 11:44:30;;;;;;;3.77;1.90;;;;;;;34.52;25.49;97243.56;6862377;28;20237;-83
2023/09/21 11:47:54;;;;;;;2.10;1.90;;;;;;;34.40;25.95;97243.94;6864629;28;20659;-83
2023/09/21 11:51:17;;;;;;;2.17;1.80;;;;;;;34.87;25.55;97228.78;6864020;28;20591;-83
2023/09/21 11:54:41;;;;;;;2.03;1.90;;;;;;;34.51;25.32;97221.56;6865200;28;20225;-83
2023/09/21 11:58:07;;;;;;;1.97;1.87;;;;;;;35.01;24.94;97209.97;6865133;28;20559;-84
2023/09/21 12:01:29;;;;;;;2.30;2.03;;;;;;;34.88;25.30;97210.78;6869119;28;20205;-84
2023/09/21 12:04:51;;;;;;;2.50;1.77;;;;;;;35.48;24.81;97203.09;6869302;28;20221;-83
2023/09/21 12:08:14;;;;;;;3.87;1.90;;;;;;;34.81;26.02;97205.19;6869955;28;20294;-84
2023/09/21 12:11:38;;;;;;;2.03;1.83;;;;;;;35.07;24.61;97141.09;6871963;28;20577;-84
2023/09/21 12:14:59;;;;;;;2.00;1.80;;;;;;;35.18;25.23;97189.53;6888900;28;20212;-83
2023/09/21 12:18:21;;;;;;;3.03;2.00;;;;;;;33.84;27.00;97175.84;6898285;28;20224;-84
2023/09/21 12:21:42;;;;;;;2.87;1.93;;;;;;;33.28;27.99;97179.19;6897488;28;20223;-83
2023/09/21 12:25:06;;;;;;;3.77;2.00;;;;;;;33.55;27.27;97155.34;6873553;28;20232;-84
2023/09/21 12:28:29;;;;;;;2.40;1.70;;;;;;;33.68;27.31;97170.56;6869619;28;20211;-84
2023/09/21 12:31:50;;;;;;;2.00;1.90;;;;;;;33.43;27.68;97161.28;6867232;28;20230;-84
2023/09/21 12:35:17;;;;;;;2.30;2.10;;;;;;;33.47;27.81;97159.31;6867244;28;20349;-84
2023/09/21 12:38:40;;;;;;;1.77;1.67;;;;;;;33.34;27.13;97127.31;6867796;28;20204;-84
2023/09/21 12:42:02;;;;;;;1.87;1.77;;;;;;;33.03;27.20;97144.72;6853999;28;20258;-84
2023/09/21 12:45:25;;;;;;;2.37;1.80;;;;;;;32.53;28.23;97139.94;6841214;29;20291;-84
2023/09/21 12:48:46;;;;;;;2.83;1.80;;;;;;;32.29;29.02;97148.09;6840997;29;20236;-85
2023/09/21 12:52:08;;;;;;;1.90;1.80;;;;;;;32.14;28.42;97135.22;6840359;29;20610;-85
2023/09/21 12:55:29;;;;;;;1.73;1.63;;;;;;;33.37;27.71;97128.53;6842037;29;20295;-82
2023/09/21 12:58:51;;;;;;;2.23;2.03;;;;;;;33.83;28.11;97126.72;6843713;29;20279;-83
2023/09/21 13:02:14;;;;;;;1.97;1.87;;;;;;;33.79;28.06;97125.91;6860622;28;20232;-84
2023/09/21 13:05:36;;;;;;;2.63;1.83;;;;;;;34.26;27.17;97106.00;6871537;28;20229;-83
2023/09/21 13:08:58;;;;;;;2.90;2.10;;;;;;;34.01;27.47;97114.34;6873365;28;20209;-83
2023/09/21 13:12:20;;;;;;;2.40;2.20;;;;;;;33.95;27.83;97101.94;6846903;28;20237;-84
2023/09/21 13:15:42;;;;;;;5.03;2.23;;;;;;;34.23;27.10;97099.16;6870323;28;20228;-83
2023/09/21 13:19:05;;;;;;;2.30;2.10;;;;;;;33.19;28.53;97085.72;6870739;28;20293;-83
2023/09/21 13:22:26;;;;;;;2.00;1.77;;;;;;;33.56;28.12;97084.28;6855965;28;20217;-82
2023/09/21 13:25:48;;;;;;;2.50;2.07;;;;;;;32.89;29.14;97091.56;6883062;28;20226;-82
2023/09/21 13:29:10;;;;;;;2.53;1.70;;;;;;;32.11;30.14;97081.00;6877101;28;20222;-82
2023/09/21 13:32:31;;;;;;;2.97;2.20;;;;;;;33.03;29.72;97071.28;6878689;28;20223;-83
2023/09/21 13:35:54;;;;;;;2.47;2.00;;;;;;;33.08;29.73;97059.72;6879271;28;20212;-83
2023/09/21 13:39:16;;;;;;;2.27;1.90;;;;;;;32.41;29.26;97070.50;6874301;28;20205;-83
2023/09/21 13:42:39;;;;;;;2.63;2.17;;;;;;;32.00;30.05;97077.31;6875657;28;20219;-84
2023/09/21 13:46:00;;;;;;;2.20;2.00;;;;;;;32.99;29.43;97062.88;6868315;28;20308;-84
2023/09/21 13:49:24;;;;;;;2.30;2.10;;;;;;;33.81;28.72;97056.38;6869739;28;20294;-83
2023/09/21 13:52:47;;;;;;;4.03;2.20;;;;;;;33.11;28.33;96966.75;6885592;28;20226;-84
2023/09/21 13:56:09;;;;;;;3.17;2.63;;;;;;;34.16;27.62;97057.22;6870564;28;20586;-83
2023/09/21 13:59:30;;;;;;;5.70;1.87;;;;;;;33.94;27.82;97029.63;6875757;28;20215;-84
2023/09/21 14:02:52;;;;;;;2.67;1.83;;;;;;;33.78;28.34;97037.63;6872382;28;20702;-83
2023/09/21 14:06:13;;;;;;;3.10;2.00;;;;;;;33.28;28.29;97033.09;6866112;28;20718;-84
2023/09/21 14:09:36;;;;;;;4.20;2.20;;;;;;;33.65;27.68;97028.78;6865007;28;20214;-82
2023/09/21 14:12:58;;;;;;;3.23;1.70;;;;;;;33.38;27.58;97019.13;6864474;28;20244;-83
2023/09/21 14:16:19;;;;;;;2.07;1.80;;;;;;;33.80;27.39;97032.41;6864997;28;20211;-83
2023/09/21 14:19:41;;;;;;;2.27;1.90;;;;;;;33.14;27.34;97010.69;6864601;28;20267;-83
2023/09/21 14:23:03;;;;;;;2.00;1.80;;;;;;;32.96;28.15;97018.19;6865281;28;20247;-84
2023/09/21 14:26:26;;;;;;;3.43;1.70;;;;;;;33.89;27.47;97008.44;6864661;28;20223;-83
2023/09/21 14:29:47;;;;;;;2.20;2.00;;;;;;;32.84;28.77;97013.75;6864223;28;20283;-84
2023/09/21 14:33:09;;;;;;;3.37;1.70;;;;;;;32.37;28.55;96963.66;6866491;28;20719;-83
2023/09/21 14:36:30;;;;;;;2.03;1.70;;;;;;;33.40;28.62;97001.97;6867717;28;20346;-83
2023/09/21 14:39:53;;;;;;;1.90;1.70;;;;;;;33.37;27.86;97014.75;6871619;28;20212;-81
2023/09/21 14:43:16;;;;;;;2.47;1.83;;;;;;;33.81;27.92;97015.25;6873722;28;20277;-82
2023/09/21 14:46:38;;;;;;;1.97;1.77;;;;;;;33.62;28.04;97012.81;6876905;28;20235;-83
2023/09/21 14:50:02;;;;;;;2.37;1.90;;;;;;;33.65;28.43;97014.78;6877568;28;20294;-82
2023/09/21 14:53:25;;;;;;;2.10;1.90;;;;;;;33.21;29.16;97005.09;6873627;28;20295;-85
2023/09/21 14:56:47;;;;;;;3.13;1.90;;;;;;;33.37;29.12;97005.56;6874412;28;20259;-83
2023/09/21 15:00:12;;;;;;;1.77;1.67;;;;;;;33.30;28.83;96983.22;6868482;28;20295;-85
2023/09/21 15:03:35;;;;;;;9.93;2.00;;;;;;;33.43;28.73;96999.19;6863199;28;20234;-84
2023/09/21 15:06:56;;;;;;;2.40;1.80;;;;;;;33.23;28.73;96997.94;6863715;28;20325;-85
2023/09/21 15:10:18;;;;;;;3.27;1.90;;;;;;;33.50;29.16;97001.19;6864686;28;20369;-84
2023/09/21 15:13:39;;;;;;;2.17;1.70;;;;;;;33.19;28.67;96955.22;6863426;28;20243;-84
2023/09/21 15:17:02;;;;;;;2.10;1.67;;;;;;;33.20;28.87;97001.50;6864228;28;20251;-84
2023/09/21 15:20:24;;;;;;;3.67;2.33;;;;;;;32.98;29.46;97005.44;6863648;28;20247;-85
2023/09/21 15:23:45;;;;;;;4.07;1.97;;;;;;;32.99;29.77;97001.44;6864020;28;20232;-84
2023/09/21 15:27:07;;;;;;;3.40;2.30;;;;;;;32.54;30.80;96999.22;6864010;28;20285;-84
2023/09/21 15:30:29;;;;;;;4.80;1.90;;;;;;;32.97;30.16;97000.25;6863380;28;20686;-84
2023/09/21 15:33:52;;;;;;;3.67;2.07;;;;;;;33.12;31.13;97015.84;6861746;28;20313;-85
2023/09/21 15:37:15;;;;;;;3.13;2.23;;;;;;;33.16;31.86;96997.91;6863313;28;20252;-84
2023/09/21 15:40:36;;;;;;;2.30;2.10;;;;;;;33.17;31.95;97001.50;6862971;28;20230;-84
2023/09/21 15:43:58;;;;;;;2.10;1.90;;;;;;;32.98;34.28;96999.84;6867773;28;20237;-85
2023/09/21 15:47:19;;;;;;;3.53;2.10;;;;;;;32.75;34.57;96992.94;6870538;28;20246;-84
2023/09/21 15:50:42;;;;;;;2.47;2.10;;;;;;;32.66;34.78;96993.28;6868992;28;20253;-84
2023/09/21 15:54:04;;;;;;;2.70;2.27;;;;;;;32.58;34.88;97000.03;6869148;28;20320;-84